Time;durP1;ratioP1;P1;durP2;ratioP2;P2;SDS_P1;SDS_P2;PMS_P1;PMS_P2;Temp;Humidity;BMP_temperature;BMP_pressure;BME280_temperature;BME280_humidity;BME280_pressure;Samples;Min_cycle;Max_cycle;Signal;HPM_P1;HPM_P2
2022/06/11 00:00:29;;;;;;;4.70;3.60;;;17.30;99.90;;;;;;4993773;28;20510;-69
2022/06/11 00:02:54;;;;;;;4.70;3.47;;;17.40;99.90;;;;;;4985069;28;20899;-69
2022/06/11 00:05:21;;;;;;;3.90;3.50;;;17.30;99.90;;;;;;4985514;28;20735;-70
2022/06/11 00:07:47;;;;;;;6.10;4.03;;;17.40;99.90;;;;;;4984317;28;20237;-69
2022/06/11 00:10:12;;;;;;;3.90;3.60;;;17.40;99.90;;;;;;4983258;28;20571;-71
2022/06/11 00:12:38;;;;;;;4.30;3.80;;;17.30;99.90;;;;;;4998516;28;20217;-70
2022/06/11 00:15:05;;;;;;;5.70;3.80;;;17.20;99.90;;;;;;4984052;28;20297;-70
2022/06/11 00:17:32;;;;;;;3.83;3.33;;;17.10;99.90;;;;;;4984822;28;20211;-70
2022/06/11 00:19:58;;;;;;;5.17;3.07;;;17.00;99.90;;;;;;4992935;28;20432;-69
2022/06/11 00:22:24;;;;;;;5.03;3.63;;;16.90;99.90;;;;;;4997381;28;20443;-71
2022/06/11 00:24:50;;;;;;;3.50;3.20;;;16.90;99.90;;;;;;4993760;28;20419;-71
2022/06/11 00:27:18;;;;;;;3.97;3.17;;;16.90;99.90;;;;;;4983584;28;20505;-70
2022/06/11 00:29:44;;;;;;;5.67;3.90;;;16.90;99.90;;;;;;4985277;28;20420;-71
2022/06/11 00:32:11;;;;;;;4.03;3.63;;;16.80;99.90;;;;;;4991158;28;20943;-70
2022/06/11 00:34:38;;;;;;;3.67;3.37;;;16.80;99.90;;;;;;4985134;28;20412;-70
2022/06/11 00:37:04;;;;;;;6.27;3.87;;;16.90;99.90;;;;;;4984785;28;20432;-70
2022/06/11 00:39:33;;;;;;;3.93;3.60;;;16.90;99.90;;;;;;4998309;28;20410;-71
2022/06/11 00:42:05;;;;;;;3.53;3.20;;;16.80;99.90;;;;;;4985537;28;20443;-71
2022/06/11 00:44:31;;;;;;;3.60;3.27;;;16.90;99.90;;;;;;4985004;28;20420;-70
2022/06/11 00:47:17;;;;;;;3.47;3.17;;;16.90;99.90;;;;;;4984882;28;20446;-71
2022/06/11 00:49:50;;;;;;;4.67;3.60;;;16.90;99.90;;;;;;4988753;28;20180;-71
2022/06/11 00:52:36;;;;;;;3.50;3.20;;;16.90;99.90;;;;;;5004355;28;20403;-70
2022/06/11 00:55:11;;;;;;;5.13;3.33;;;16.80;99.90;;;;;;4986676;28;20449;-69
2022/06/11 00:57:46;;;;;;;4.50;3.10;;;16.70;99.90;;;;;;4991059;28;20458;-70
2022/06/11 01:00:19;;;;;;;3.97;3.10;;;16.60;99.90;;;;;;4990576;28;20421;-71
2022/06/11 01:02:46;;;;;;;3.37;3.10;;;16.70;99.90;;;;;;4984595;28;20425;-70
2022/06/11 01:05:23;;;;;;;4.00;3.50;;;16.70;99.90;;;;;;4990100;28;20929;-71
2022/06/11 01:08:26;;;;;;;3.47;3.17;;;16.60;99.90;;;;;;4987789;28;20428;-70
2022/06/11 01:11:13;;;;;;;4.90;3.47;;;16.60;99.90;;;;;;4993056;28;20488;-70
2022/06/11 01:13:51;;;;;;;3.53;3.10;;;16.60;99.90;;;;;;4984625;28;20419;-70
2022/06/11 01:16:34;;;;;;;5.33;3.30;;;16.60;99.90;;;;;;4984535;28;20493;-71
2022/06/11 01:19:47;;;;;;;3.07;2.80;;;16.60;99.90;;;;;;4984307;28;20493;-71
2022/06/11 01:22:28;;;;;;;3.23;2.93;;;16.50;99.90;;;;;;4967075;28;20441;-72
2022/06/11 01:25:15;;;;;;;4.37;3.23;;;16.40;99.90;;;;;;4983975;28;20415;-72
2022/06/11 01:28:00;;;;;;;3.00;2.70;;;16.40;99.90;;;;;;4988644;28;20429;-71
2022/06/11 01:30:31;;;;;;;3.63;3.30;;;16.40;99.90;;;;;;5003551;28;20457;-71
2022/06/11 01:33:26;;;;;;;3.70;3.30;;;16.50;99.90;;;;;;4984593;28;20918;-70
2022/06/11 01:36:22;;;;;;;5.93;3.33;;;16.40;99.90;;;;;;4987275;28;20484;-70
2022/06/11 01:38:54;;;;;;;3.27;2.80;;;16.30;99.90;;;;;;4993906;28;20499;-70
2022/06/11 01:41:39;;;;;;;5.80;4.20;;;16.30;99.90;;;;;;4990769;28;20470;-70
2022/06/11 01:44:15;;;;;;;5.27;3.47;;;16.30;99.90;;;;;;4996086;28;20509;-70
2022/06/11 01:46:44;;;;;;;4.10;3.43;;;16.20;99.90;;;;;;4969351;28;20459;-70
2022/06/11 01:49:22;;;;;;;3.73;3.10;;;16.20;99.90;;;;;;5003197;28;20407;-70
2022/06/11 01:52:13;;;;;;;3.27;2.97;;;16.20;99.90;;;;;;5003233;28;20453;-71
2022/06/11 01:54:59;;;;;;;3.57;3.30;;;16.20;99.90;;;;;;5003380;28;20491;-69
2022/06/11 01:57:35;;;;;;;3.43;2.83;;;16.20;99.90;;;;;;4996435;28;20730;-69
2022/06/11 02:00:08;;;;;;;5.60;3.37;;;16.10;99.90;;;;;;4984129;28;20825;-70
2022/06/11 02:02:45;;;;;;;4.10;3.70;;;16.10;99.90;;;;;;4985718;28;20417;-70
2022/06/11 02:05:25;;;;;;;5.03;3.67;;;16.10;99.90;;;;;;4984124;28;20910;-71
2022/06/11 02:08:00;;;;;;;3.73;3.43;;;16.10;99.90;;;;;;4984027;28;21471;-71
2022/06/11 02:10:36;;;;;;;5.17;3.30;;;16.10;99.90;;;;;;4983534;28;20455;-69
2022/06/11 02:13:05;;;;;;;5.40;3.73;;;16.20;99.90;;;;;;4983467;28;20796;-72
2022/06/11 02:15:37;;;;;;;4.23;3.30;;;16.10;99.90;;;;;;4983434;28;20418;-71
2022/06/11 02:18:10;;;;;;;3.73;3.20;;;16.10;99.90;;;;;;4970534;28;20418;-71
2022/06/11 02:20:44;;;;;;;3.00;2.80;;;16.10;99.90;;;;;;5003269;28;20498;-70
2022/06/11 02:23:19;;;;;;;4.73;3.23;;;16.00;99.90;;;;;;4998524;28;20817;-71
2022/06/11 02:25:52;;;;;;;4.67;3.60;;;15.90;99.90;;;;;;4994113;28;20530;-70
2022/06/11 02:28:22;;;;;;;3.50;3.10;;;15.90;99.90;;;;;;4999133;28;20830;-70
2022/06/11 02:30:51;;;;;;;3.27;2.97;;;16.00;99.90;;;;;;5003135;28;20482;-70
2022/06/11 02:33:18;;;;;;;5.30;3.73;;;15.90;99.90;;;;;;4985282;28;20428;-70
2022/06/11 02:35:54;;;;;;;5.97;3.13;;;15.90;99.90;;;;;;4985136;28;20947;-70
2022/06/11 02:38:24;;;;;;;3.43;3.13;;;16.00;99.90;;;;;;4993441;28;20473;-71
2022/06/11 02:40:54;;;;;;;3.50;3.20;;;15.80;99.90;;;;;;4984502;28;21110;-71
2022/06/11 02:43:20;;;;;;;3.13;2.93;;;15.90;99.90;;;;;;4987983;28;20413;-72
2022/06/11 02:45:46;;;;;;;3.63;3.30;;;15.80;99.90;;;;;;4996788;28;20763;-70
2022/06/11 02:48:13;;;;;;;4.17;3.40;;;15.80;99.90;;;;;;5001872;28;20437;-69
2022/06/11 02:50:39;;;;;;;5.30;3.10;;;15.80;99.90;;;;;;4985334;28;20210;-71
2022/06/11 02:53:07;;;;;;;4.20;3.37;;;15.80;99.90;;;;;;4990202;28;20421;-70
2022/06/11 02:55:34;;;;;;;6.20;3.50;;;15.70;99.90;;;;;;5000799;28;20445;-71
2022/06/11 02:57:59;;;;;;;6.67;3.10;;;15.70;99.90;;;;;;4991253;28;20870;-71
2022/06/11 03:00:34;;;;;;;7.40;3.50;;;15.70;99.90;;;;;;4989194;28;20750;-70
2022/06/11 03:03:00;;;;;;;4.30;3.43;;;15.60;99.90;;;;;;5006988;28;20545;-71
2022/06/11 03:05:29;;;;;;;3.73;3.37;;;15.70;99.90;;;;;;4996782;28;20430;-71
2022/06/11 03:07:55;;;;;;;4.27;3.60;;;15.70;99.90;;;;;;4995567;28;20444;-71
2022/06/11 03:10:23;;;;;;;3.40;3.20;;;15.60;99.90;;;;;;5000777;28;20525;-69
2022/06/11 03:12:48;;;;;;;4.00;3.10;;;15.60;99.90;;;;;;4991875;28;20413;-71
2022/06/11 03:15:15;;;;;;;5.67;3.43;;;15.60;99.90;;;;;;4997626;28;21346;-69
2022/06/11 03:17:44;;;;;;;3.67;3.30;;;15.50;99.90;;;;;;4993922;28;20214;-70
2022/06/11 03:20:12;;;;;;;4.53;3.40;;;15.50;99.90;;;;;;5000505;28;20403;-69
2022/06/11 03:22:38;;;;;;;3.17;2.87;;;15.50;99.90;;;;;;5000933;28;20417;-71
2022/06/11 03:25:04;;;;;;;4.10;3.47;;;15.50;99.90;;;;;;5004208;28;20418;-71
2022/06/11 03:27:30;;;;;;;3.73;3.20;;;15.50;99.90;;;;;;5007715;28;20210;-70
2022/06/11 03:29:56;;;;;;;3.43;3.13;;;15.60;99.90;;;;;;5008179;28;20427;-70
2022/06/11 03:32:21;;;;;;;6.00;3.30;;;15.60;99.90;;;;;;5010668;28;20178;-70
2022/06/11 03:34:47;;;;;;;3.77;3.43;;;15.60;99.90;;;;;;5008028;28;20186;-71
2022/06/11 03:37:13;;;;;;;4.23;3.43;;;15.60;99.90;;;;;;5013976;28;20260;-69
2022/06/11 03:39:39;;;;;;;3.70;3.40;;;15.60;99.90;;;;;;5003605;28;20182;-70
2022/06/11 03:42:07;;;;;;;3.67;3.00;;;15.60;99.90;;;;;;4996038;28;20444;-70
2022/06/11 03:44:33;;;;;;;4.00;3.60;;;15.60;99.90;;;;;;4992827;28;21009;-70
2022/06/11 03:46:58;;;;;;;3.60;2.90;;;15.60;99.90;;;;;;4998733;28;20537;-69
2022/06/11 03:49:25;;;;;;;4.60;3.23;;;15.60;99.90;;;;;;4992488;28;20191;-71
2022/06/11 03:51:50;;;;;;;3.27;3.03;;;15.60;99.90;;;;;;5002812;28;20504;-72
2022/06/11 03:54:17;;;;;;;3.47;3.17;;;15.50;99.90;;;;;;4998907;28;20990;-72
2022/06/11 03:56:45;;;;;;;4.67;3.40;;;15.60;99.90;;;;;;4999041;28;20256;-69
2022/06/11 03:59:12;;;;;;;3.30;3.00;;;15.70;99.90;;;;;;4989917;28;20485;-70
2022/06/11 04:01:39;;;;;;;3.13;2.77;;;15.70;99.90;;;;;;4992044;28;20426;-70
2022/06/11 04:04:08;;;;;;;3.37;3.07;;;15.70;99.90;;;;;;4989615;28;20417;-69
2022/06/11 04:06:45;;;;;;;3.87;3.57;;;15.70;99.90;;;;;;5000417;28;20456;-70
2022/06/11 04:09:16;;;;;;;3.60;3.30;;;15.70;99.90;;;;;;4995961;28;20416;-70
2022/06/11 04:11:42;;;;;;;6.00;3.37;;;15.70;99.90;;;;;;4994932;28;20476;-70
2022/06/11 04:14:08;;;;;;;4.40;3.40;;;15.60;99.90;;;;;;5004052;28;20414;-71
2022/06/11 04:16:42;;;;;;;4.67;3.60;;;15.70;99.90;;;;;;4997489;28;20440;-70
2022/06/11 04:19:14;;;;;;;4.30;3.90;;;15.70;99.90;;;;;;4976919;28;20194;-72
2022/06/11 04:21:39;;;;;;;4.80;3.50;;;15.70;99.90;;;;;;4989488;28;20446;-70
2022/06/11 04:24:07;;;;;;;3.73;3.43;;;15.80;99.90;;;;;;4994961;28;20424;-70
2022/06/11 04:26:37;;;;;;;4.93;4.60;;;15.90;99.90;;;;;;5001011;28;20291;-70
2022/06/11 04:29:05;;;;;;;4.73;3.97;;;15.90;99.90;;;;;;4996798;28;20457;-69
2022/06/11 04:31:32;;;;;;;4.50;3.60;;;16.00;99.90;;;;;;4984949;28;20458;-69
2022/06/11 04:33:58;;;;;;;3.97;3.63;;;15.90;99.90;;;;;;4985204;28;20858;-70
2022/06/11 04:36:26;;;;;;;5.20;4.80;;;16.00;99.90;;;;;;4985086;28;20443;-70
2022/06/11 04:38:52;;;;;;;5.20;4.37;;;15.90;99.90;;;;;;4999669;28;20900;-71
2022/06/11 04:41:18;;;;;;;5.30;4.80;;;15.90;99.90;;;;;;4992041;28;20449;-70
2022/06/11 04:43:44;;;;;;;4.30;3.83;;;15.90;99.90;;;;;;4986951;28;20182;-69
2022/06/11 04:46:10;;;;;;;5.13;4.03;;;15.90;99.90;;;;;;4987600;28;20454;-69
2022/06/11 04:48:36;;;;;;;4.10;3.80;;;16.00;99.90;;;;;;5004547;28;20571;-69
2022/06/11 04:51:02;;;;;;;3.83;3.53;;;16.00;99.90;;;;;;4996709;28;20467;-69
2022/06/11 04:53:28;;;;;;;3.90;3.60;;;16.00;99.90;;;;;;4999319;28;20181;-70
2022/06/11 04:55:54;;;;;;;4.53;4.13;;;16.10;99.90;;;;;;4987780;28;21589;-70
2022/06/11 04:58:20;;;;;;;5.53;4.10;;;16.20;99.90;;;;;;5004370;28;20182;-70
2022/06/11 05:00:46;;;;;;;6.87;3.60;;;16.20;99.90;;;;;;5003962;28;20268;-69
2022/06/11 05:03:12;;;;;;;3.67;3.37;;;16.30;99.90;;;;;;5003855;28;21051;-71
2022/06/11 05:05:38;;;;;;;4.00;3.63;;;16.40;99.90;;;;;;5000950;28;20201;-68
2022/06/11 05:08:04;;;;;;;4.53;3.43;;;16.60;99.90;;;;;;5001367;28;20426;-69
2022/06/11 05:10:32;;;;;;;3.97;3.67;;;16.70;99.90;;;;;;4998088;28;20196;-69
2022/06/11 05:12:57;;;;;;;4.40;4.00;;;16.80;99.90;;;;;;4983855;28;20413;-70
2022/06/11 05:15:24;;;;;;;3.30;3.00;;;16.80;99.90;;;;;;4991582;28;20492;-70
2022/06/11 05:17:50;;;;;;;5.30;3.50;;;16.90;99.90;;;;;;5003889;28;20183;-70
2022/06/11 05:20:16;;;;;;;3.40;3.10;;;17.00;99.90;;;;;;5003710;28;20444;-70
2022/06/11 05:22:45;;;;;;;4.87;3.20;;;17.10;99.90;;;;;;4980593;28;20470;-69
2022/06/11 05:25:12;;;;;;;3.80;3.10;;;17.30;99.90;;;;;;5002912;28;20459;-71
2022/06/11 05:27:40;;;;;;;2.67;2.47;;;17.50;99.90;;;;;;4996887;28;20492;-71
2022/06/11 05:30:30;;;;;;;4.37;3.00;;;17.60;99.90;;;;;;4990112;28;20422;-71
2022/06/11 05:32:56;;;;;;;2.90;2.70;;;17.80;99.90;;;;;;5003281;28;20908;-70
2022/06/11 05:35:25;;;;;;;3.23;2.93;;;17.90;99.90;;;;;;4987049;28;20920;-68
2022/06/11 05:37:53;;;;;;;3.30;3.00;;;18.10;99.90;;;;;;4983987;28;20572;-70
2022/06/11 05:40:22;;;;;;;3.83;2.93;;;18.30;99.90;;;;;;4966399;28;20428;-71
2022/06/11 05:42:48;;;;;;;3.83;2.90;;;18.40;99.90;;;;;;4983609;28;20420;-71
2022/06/11 05:45:17;;;;;;;4.63;3.47;;;18.50;99.90;;;;;;4987988;28;20429;-70
2022/06/11 05:47:44;;;;;;;4.20;3.00;;;18.60;99.90;;;;;;5000520;28;20407;-70
2022/06/11 05:50:14;;;;;;;3.50;2.90;;;18.70;99.90;;;;;;4984548;28;20829;-70
2022/06/11 05:52:45;;;;;;;3.50;3.07;;;18.90;99.90;;;;;;5002128;28;21215;-71
2022/06/11 05:55:18;;;;;;;4.73;2.83;;;19.00;99.90;;;;;;4975575;28;20743;-71
2022/06/11 05:57:47;;;;;;;2.80;2.60;;;19.20;99.90;;;;;;5003495;28;20434;-69
2022/06/11 06:00:15;;;;;;;3.27;2.80;;;19.40;99.90;;;;;;4994792;28;21736;-72
2022/06/11 06:02:43;;;;;;;2.80;2.60;;;19.60;99.90;;;;;;4992828;28;20514;-71
2022/06/11 06:05:09;;;;;;;2.80;2.50;;;19.80;99.90;;;;;;4995229;28;20415;-71
2022/06/11 06:07:35;;;;;;;3.17;2.97;;;19.90;99.90;;;;;;4986836;28;20813;-70
2022/06/11 06:10:01;;;;;;;2.80;2.60;;;20.10;99.90;;;;;;4985266;28;20426;-70
2022/06/11 06:12:32;;;;;;;4.50;2.90;;;20.10;99.90;;;;;;4983268;28;20186;-71
2022/06/11 06:15:30;;;;;;;5.30;3.00;;;20.20;99.90;;;;;;4983666;28;20495;-70
2022/06/11 06:17:56;;;;;;;3.00;2.70;;;20.30;99.90;;;;;;4991268;28;20489;-71
2022/06/11 06:20:23;;;;;;;2.73;2.43;;;20.40;99.90;;;;;;4986061;28;20420;-70
2022/06/11 06:22:49;;;;;;;3.33;2.97;;;20.50;99.90;;;;;;4996579;28;20423;-69
2022/06/11 06:25:18;;;;;;;2.90;2.60;;;20.60;99.90;;;;;;4985033;28;20931;-69
2022/06/11 06:27:44;;;;;;;5.40;3.00;;;20.70;99.90;;;;;;4988435;28;20200;-70
2022/06/11 06:30:11;;;;;;;4.43;2.90;;;20.80;99.90;;;;;;4994404;28;20513;-69
2022/06/11 06:32:36;;;;;;;2.60;2.40;;;20.90;99.90;;;;;;4999063;28;20571;-70
2022/06/11 06:35:03;;;;;;;4.00;3.70;;;20.90;99.90;;;;;;4989018;28;20551;-71
2022/06/11 06:37:29;;;;;;;4.50;2.67;;;21.00;99.90;;;;;;4981170;28;20196;-70
2022/06/11 06:39:54;;;;;;;4.43;2.37;;;21.10;99.90;;;;;;4997074;28;20419;-70
2022/06/11 06:42:20;;;;;;;4.33;3.90;;;21.20;99.90;;;;;;4986558;28;20181;-71
2022/06/11 06:44:46;;;;;;;4.10;2.83;;;21.20;99.90;;;;;;5001707;28;20190;-69
2022/06/11 06:47:11;;;;;;;3.83;3.40;;;21.10;99.90;;;;;;4998308;28;20224;-69
2022/06/11 06:49:37;;;;;;;4.63;2.97;;;20.70;99.90;;;;;;5002332;28;20622;-71
2022/06/11 06:52:03;;;;;;;4.13;2.70;;;20.90;99.90;;;;;;4987012;28;20266;-71
2022/06/11 06:54:29;;;;;;;3.00;2.80;;;21.20;99.90;;;;;;4996531;28;20173;-70
2022/06/11 06:56:54;;;;;;;3.30;2.83;;;21.30;99.90;;;;;;5006403;23;20545;-71
2022/06/11 06:59:20;;;;;;;4.70;2.53;;;21.60;99.90;;;;;;4987119;28;20184;-71
2022/06/11 07:01:46;;;;;;;3.17;2.87;;;21.70;99.90;;;;;;4987242;28;20176;-70
2022/06/11 07:04:13;;;;;;;2.63;2.43;;;21.80;99.90;;;;;;4987003;28;20184;-72
2022/06/11 07:06:40;;;;;;;3.83;2.43;;;21.70;99.90;;;;;;4980803;28;20224;-71
2022/06/11 07:09:06;;;;;;;5.93;2.57;;;21.80;99.90;;;;;;4968044;28;20452;-71
2022/06/11 07:11:31;;;;;;;2.27;2.10;;;21.80;99.90;;;;;;4967056;28;20492;-70
2022/06/11 07:13:57;;;;;;;3.53;2.43;;;21.60;99.90;;;;;;4967544;28;20182;-70
2022/06/11 07:16:32;;;;;;;5.23;2.10;;;21.50;99.90;;;;;;4966994;28;20201;-70
2022/06/11 07:19:01;;;;;;;2.10;1.90;;;21.80;99.90;;;;;;4967182;28;20187;-72
2022/06/11 07:21:34;;;;;;;2.70;2.50;;;22.10;99.90;;;;;;4967629;28;20823;-70
2022/06/11 07:24:06;;;;;;;5.20;1.97;;;22.20;99.90;;;;;;4967214;28;20416;-70
2022/06/11 07:26:36;;;;;;;2.30;2.10;;;22.20;99.90;;;;;;4967126;28;20960;-72
2022/06/11 07:29:17;;;;;;;3.80;3.00;;;22.30;99.90;;;;;;4967519;28;21592;-70
2022/06/11 07:31:45;;;;;;;3.03;2.10;;;22.60;99.90;;;;;;4949638;28;20455;-71
2022/06/11 07:34:13;;;;;;;2.83;2.30;;;22.40;99.90;;;;;;4966876;28;20468;-70
2022/06/11 07:36:39;;;;;;;3.77;2.90;;;22.30;99.90;;;;;;4966630;28;20479;-70
2022/06/11 07:39:04;;;;;;;2.80;2.57;;;22.50;99.90;;;;;;4967330;28;20839;-70
2022/06/11 07:41:30;;;;;;;4.20;2.20;;;22.50;99.90;;;;;;4966696;28;20428;-70
2022/06/11 07:43:56;;;;;;;3.20;2.37;;;22.40;99.90;;;;;;4967084;28;20200;-71
2022/06/11 07:46:22;;;;;;;2.50;2.30;;;22.40;99.90;;;;;;4966677;28;20264;-70
2022/06/11 07:48:48;;;;;;;3.17;2.47;;;22.20;99.90;;;;;;4966879;28;20224;-72
2022/06/11 07:51:18;;;;;;;3.27;2.43;;;22.30;99.90;;;;;;4966749;28;20961;-71
2022/06/11 07:53:45;;;;;;;2.10;1.90;;;22.40;99.90;;;;;;4966807;28;20424;-73
2022/06/11 07:56:10;;;;;;;3.33;3.03;;;22.80;99.90;;;;;;4966540;28;20622;-70
2022/06/11 07:58:36;;;;;;;4.97;2.30;;;22.90;99.90;;;;;;4966671;28;21272;-71
2022/06/11 08:01:01;;;;;;;3.13;2.40;;;22.70;99.90;;;;;;4966438;28;20181;-71
2022/06/11 08:03:27;;;;;;;4.87;2.80;;;22.50;99.90;;;;;;4966239;28;20567;-71
2022/06/11 08:05:54;;;;;;;3.77;2.40;;;22.50;99.90;;;;;;4966317;28;20185;-70
2022/06/11 08:08:21;;;;;;;6.77;2.53;;;22.60;99.90;;;;;;4966444;28;20413;-71
2022/06/11 08:10:47;;;;;;;2.40;2.20;;;22.80;99.90;;;;;;4966492;28;20483;-70
2022/06/11 08:13:12;;;;;;;3.63;2.67;;;22.70;99.80;;;;;;4966117;28;20417;-72
2022/06/11 08:15:41;;;;;;;5.20;2.90;;;22.90;99.40;;;;;;4966427;28;20439;-70
2022/06/11 08:18:07;;;;;;;8.60;2.80;;;22.90;99.40;;;;;;4966465;28;20311;-70
2022/06/11 08:20:33;;;;;;;6.47;2.53;;;22.90;99.50;;;;;;4965601;28;20988;-70
2022/06/11 08:23:01;;;;;;;2.47;2.10;;;23.00;98.70;;;;;;4966001;28;20204;-69
2022/06/11 08:25:27;;;;;;;5.13;2.90;;;23.30;99.00;;;;;;4966133;28;20467;-71
2022/06/11 08:27:52;;;;;;;3.60;2.77;;;23.40;98.10;;;;;;4966270;28;20424;-70
2022/06/11 08:30:21;;;;;;;5.37;2.67;;;23.30;98.10;;;;;;4966229;28;20205;-70
2022/06/11 08:32:48;;;;;;;3.73;3.27;;;23.30;98.50;;;;;;4960613;28;20244;-70
2022/06/11 08:35:15;;;;;;;3.63;2.60;;;23.50;99.10;;;;;;4965961;28;20416;-71
2022/06/11 08:37:41;;;;;;;5.13;2.50;;;23.50;98.40;;;;;;4965694;28;20801;-72
2022/06/11 08:40:26;;;;;;;3.10;2.60;;;23.50;98.90;;;;;;4965845;28;20467;-69
2022/06/11 08:42:59;;;;;;;5.90;2.87;;;23.60;98.40;;;;;;4965762;28;20177;-70
2022/06/11 08:45:47;;;;;;;3.80;2.33;;;23.70;98.40;;;;;;4965589;28;20964;-69
2022/06/11 08:48:29;;;;;;;3.33;2.47;;;23.70;98.50;;;;;;4954632;28;20499;-69
2022/06/11 08:51:03;;;;;;;4.83;2.77;;;23.80;97.70;;;;;;4965685;28;20516;-70
2022/06/11 08:53:32;;;;;;;3.00;2.30;;;23.80;97.80;;;;;;4965498;28;20434;-70
2022/06/11 08:55:58;;;;;;;5.10;2.70;;;23.70;97.90;;;;;;4965413;28;20417;-69
2022/06/11 08:58:23;;;;;;;5.30;2.93;;;23.70;98.10;;;;;;4964826;28;20435;-70
2022/06/11 09:01:06;;;;;;;4.37;2.60;;;23.90;97.70;;;;;;4965563;28;20253;-71
2022/06/11 09:03:45;;;;;;;3.83;2.37;;;23.80;96.40;;;;;;4965551;28;20184;-72
2022/06/11 09:06:26;;;;;;;2.83;2.47;;;23.70;96.90;;;;;;4965252;28;20453;-71
2022/06/11 09:09:22;;;;;;;7.70;2.63;;;23.80;97.20;;;;;;4965110;28;20440;-70
2022/06/11 09:12:15;;;;;;;2.87;2.67;;;24.00;97.10;;;;;;4964812;28;20495;-71
2022/06/11 09:14:53;;;;;;;2.60;2.40;;;24.20;96.20;;;;;;4965717;28;20409;-71
2022/06/11 09:17:41;;;;;;;3.87;2.60;;;24.50;96.10;;;;;;4965007;28;20933;-70
2022/06/11 09:20:27;;;;;;;5.60;2.50;;;24.50;95.70;;;;;;4955128;28;20429;-71
2022/06/11 09:23:04;;;;;;;5.10;2.70;;;24.50;95.20;;;;;;4965122;28;20409;-71
2022/06/11 09:25:59;;;;;;;3.10;2.80;;;24.50;95.20;;;;;;4965672;28;20780;-73
2022/06/11 09:28:42;;;;;;;4.23;3.10;;;24.50;95.40;;;;;;4965129;28;20913;-71
2022/06/11 09:31:24;;;;;;;6.90;3.50;;;24.60;95.00;;;;;;4965068;28;20479;-71
2022/06/11 09:34:15;;;;;;;3.73;2.40;;;24.50;94.90;;;;;;4965177;28;20540;-71
2022/06/11 09:37:13;;;;;;;6.83;2.50;;;24.50;94.50;;;;;;4964677;28;20432;-70
2022/06/11 09:39:41;;;;;;;4.27;2.50;;;24.70;95.40;;;;;;4947731;28;20959;-70
2022/06/11 09:42:22;;;;;;;4.43;2.40;;;24.70;94.70;;;;;;4964831;28;20512;-70
2022/06/11 09:44:54;;;;;;;2.90;2.20;;;24.60;94.60;;;;;;4964838;28;21355;-70
2022/06/11 09:47:38;;;;;;;2.83;2.53;;;24.80;94.10;;;;;;4964449;28;21024;-71
2022/06/11 09:50:15;;;;;;;3.23;2.60;;;25.00;93.20;;;;;;4964766;28;20423;-71
2022/06/11 09:53:07;;;;;;;4.57;2.67;;;25.10;93.40;;;;;;4964574;28;20413;-71
2022/06/11 09:55:41;;;;;;;3.83;2.40;;;25.50;94.10;;;;;;4964667;28;20416;-72
2022/06/11 09:58:22;;;;;;;4.90;2.67;;;25.90;93.50;;;;;;4964766;28;20635;-71
2022/06/11 10:00:54;;;;;;;5.30;2.37;;;26.00;92.60;;;;;;4967477;28;20830;-70
2022/06/11 10:03:28;;;;;;;4.63;2.80;;;25.90;93.20;;;;;;4969109;28;20409;-70
2022/06/11 10:05:56;;;;;;;3.67;2.57;;;26.00;92.90;;;;;;4968761;28;21429;-70
2022/06/11 10:09:02;;;;;;;2.80;2.37;;;26.20;92.50;;;;;;4968319;28;20417;-70
2022/06/11 10:11:48;;;;;;;4.50;2.63;;;26.50;93.40;;;;;;4968658;28;20543;-70
2022/06/11 10:14:28;;;;;;;5.10;2.73;;;26.60;91.50;;;;;;4967481;28;20534;-71
2022/06/11 10:17:10;;;;;;;3.60;2.63;;;26.50;92.60;;;;;;4968770;28;20820;-71
2022/06/11 10:19:55;;;;;;;3.00;2.50;;;26.90;91.80;;;;;;4968931;28;20487;-71
2022/06/11 10:22:28;;;;;;;3.47;2.60;;;27.10;91.10;;;;;;4968189;28;20508;-70
2022/06/11 10:25:09;;;;;;;3.90;2.57;;;27.00;91.30;;;;;;4968511;28;20418;-73
2022/06/11 10:27:43;;;;;;;4.90;2.60;;;27.10;90.70;;;;;;4968272;28;20436;-71
2022/06/11 10:30:33;;;;;;;3.03;2.73;;;26.90;90.10;;;;;;4968654;28;20405;-72
2022/06/11 10:33:02;;;;;;;3.40;2.73;;;26.30;90.70;;;;;;4968306;28;20408;-71
2022/06/11 10:35:42;;;;;;;5.80;2.73;;;25.60;91.40;;;;;;4967518;28;20499;-72
2022/06/11 10:38:22;;;;;;;5.00;3.10;;;25.50;91.70;;;;;;4967818;28;20471;-70
2022/06/11 10:40:50;;;;;;;3.63;2.20;;;25.60;91.90;;;;;;4968117;28;20491;-71
2022/06/11 10:43:32;;;;;;;4.10;3.03;;;25.60;91.90;;;;;;4950672;28;20511;-72
2022/06/11 10:46:00;;;;;;;9.10;2.97;;;25.60;91.80;;;;;;4968172;28;20408;-70
2022/06/11 10:48:32;;;;;;;5.70;3.30;;;25.50;91.80;;;;;;4967817;28;20409;-71
2022/06/11 10:51:00;;;;;;;2.70;2.30;;;25.70;91.60;;;;;;4967859;28;20460;-70
2022/06/11 10:53:33;;;;;;;3.90;2.37;;;26.00;91.30;;;;;;4967629;28;20427;-71
2022/06/11 10:56:06;;;;;;;3.40;2.57;;;26.30;90.50;;;;;;4950603;28;20560;-72
2022/06/11 10:58:45;;;;;;;5.40;2.80;;;26.00;90.80;;;;;;4967693;28;20429;-71
2022/06/11 11:01:25;;;;;;;4.00;2.80;;;25.80;91.30;;;;;;4967725;28;21468;-71
2022/06/11 11:04:13;;;;;;;7.10;2.87;;;26.20;91.00;;;;;;4968058;28;20462;-72
2022/06/11 11:06:41;;;;;;;3.57;2.70;;;26.20;90.70;;;;;;4938416;28;20482;-71
2022/06/11 11:09:19;;;;;;;5.77;2.90;;;26.40;91.80;;;;;;4967990;28;20424;-72
2022/06/11 11:11:46;;;;;;;3.00;2.53;;;26.80;90.80;;;;;;4967359;28;20588;-70
2022/06/11 11:14:40;;;;;;;3.27;2.80;;;27.30;90.20;;;;;;4967513;28;20519;-70
2022/06/11 11:17:19;;;;;;;4.80;2.97;;;27.60;89.40;;;;;;4961714;28;20941;-70
2022/06/11 11:22:41;;;;;;;3.83;2.97;;;27.70;87.20;;;;;;4967580;28;20487;-70
2022/06/11 11:25:16;;;;;;;2.83;2.50;;;27.90;84.90;;;;;;4967278;28;20425;-69
2022/06/11 11:27:47;;;;;;;6.13;2.63;;;28.10;84.70;;;;;;4967489;28;20432;-71
2022/06/11 11:30:15;;;;;;;4.93;2.60;;;28.60;84.10;;;;;;4967727;28;20417;-71
2022/06/11 11:32:43;;;;;;;2.57;2.37;;;29.60;84.10;;;;;;4967400;28;20416;-72
2022/06/11 11:35:22;;;;;;;3.43;2.37;;;30.90;78.20;;;;;;4967477;28;20408;-71
2022/06/11 11:38:03;;;;;;;2.93;2.40;;;31.30;74.80;;;;;;4967237;28;20498;-72
2022/06/11 11:40:47;;;;;;;3.37;2.10;;;32.00;72.40;;;;;;4967137;28;20467;-71
2022/06/11 11:43:15;;;;;;;2.60;2.10;;;32.60;68.30;;;;;;4967193;28;20847;-71
2022/06/11 11:46:08;;;;;;;3.83;2.27;;;31.60;68.40;;;;;;4967005;28;20931;-72
2022/06/11 11:48:46;;;;;;;4.07;2.50;;;30.30;71.10;;;;;;4952880;28;20437;-72
2022/06/11 11:51:38;;;;;;;3.50;3.10;;;29.80;71.40;;;;;;4966600;28;20480;-72
2022/06/11 11:54:22;;;;;;;4.27;2.70;;;29.20;74.30;;;;;;4967033;28;20428;-71
2022/06/11 11:56:54;;;;;;;3.60;2.53;;;28.90;74.70;;;;;;4966627;28;20452;-72
2022/06/11 11:59:31;;;;;;;3.77;2.53;;;28.50;75.40;;;;;;4966517;28;20440;-71
2022/06/11 12:02:16;;;;;;;7.23;2.80;;;29.80;75.30;;;;;;4966753;28;20920;-72
2022/06/11 12:05:07;;;;;;;2.30;2.00;;;31.90;68.80;;;;;;4966762;28;20909;-72
2022/06/11 12:07:36;;;;;;;2.30;2.10;;;33.30;63.70;;;;;;4966356;28;20919;-71
2022/06/11 12:10:20;;;;;;;3.70;2.00;;;33.50;62.10;;;;;;4966488;28;20503;-72
2022/06/11 12:12:51;;;;;;;3.13;2.47;;;34.20;60.70;;;;;;4948837;28;20573;-71
2022/06/11 12:15:24;;;;;;;4.50;2.10;;;34.90;58.90;;;;;;4966371;28;20415;-71
2022/06/11 12:17:56;;;;;;;3.90;2.83;;;35.00;57.20;;;;;;4966745;28;20444;-71
2022/06/11 12:20:50;;;;;;;3.30;2.20;;;33.30;59.60;;;;;;4966652;28;20779;-71
2022/06/11 12:23:46;;;;;;;3.17;2.30;;;31.10;64.00;;;;;;4957302;28;20429;-71
2022/06/11 12:26:18;;;;;;;2.57;2.37;;;31.00;65.00;;;;;;4966084;28;20419;-72
2022/06/11 12:28:55;;;;;;;3.10;2.33;;;31.90;62.50;;;;;;4965996;28;20840;-72
2022/06/11 12:31:21;;;;;;;2.53;2.33;;;31.20;65.10;;;;;;4965832;28;20448;-73
2022/06/11 12:33:50;;;;;;;3.20;2.60;;;30.70;65.40;;;;;;4966190;28;20480;-71
2022/06/11 12:36:38;;;;;;;3.00;2.17;;;31.50;64.60;;;;;;4953182;28;20433;-71
2022/06/11 12:39:33;;;;;;;4.80;3.10;;;32.00;63.50;;;;;;4966084;28;20920;-72
2022/06/11 12:42:40;;;;;;;5.50;2.67;;;34.00;59.50;;;;;;4965844;28;20425;-70
2022/06/11 12:45:26;;;;;;;6.63;2.67;;;34.40;57.80;;;;;;4932853;28;20420;-71
2022/06/11 12:48:13;;;;;;;2.90;2.23;;;34.60;57.20;;;;;;4965802;28;20482;-72
2022/06/11 12:51:01;;;;;;;4.80;2.60;;;34.50;57.50;;;;;;4966038;28;21121;-70
2022/06/11 12:53:33;;;;;;;3.50;1.97;;;35.20;56.50;;;;;;4965723;28;20704;-72
2022/06/11 12:56:02;;;;;;;3.60;1.73;;;35.50;54.80;;;;;;4965824;28;20449;-72
2022/06/11 12:58:39;;;;;;;2.43;1.97;;;36.50;55.40;;;;;;4965831;28;20502;-72
2022/06/11 13:01:18;;;;;;;3.90;2.23;;;36.40;51.70;;;;;;4965491;28;20409;-72
2022/06/11 13:04:09;;;;;;;2.03;1.80;;;35.80;51.40;;;;;;4965512;28;20440;-72
2022/06/11 13:06:48;;;;;;;2.47;1.77;;;37.20;50.80;;;;;;4965838;28;21288;-72
2022/06/11 13:09:56;;;;;;;2.43;1.80;;;37.30;49.30;;;;;;4965535;28;20415;-72
2022/06/11 13:12:47;;;;;;;3.07;2.37;;;37.20;51.20;;;;;;4965529;28;20466;-71
2022/06/11 13:15:35;;;;;;;2.13;1.60;;;36.70;51.00;;;;;;4965398;28;20436;-72
2022/06/11 13:18:07;;;;;;;3.07;2.00;;;35.50;49.80;;;;;;4965764;28;20420;-72
2022/06/11 13:20:36;;;;;;;1.90;1.80;;;35.90;51.10;;;;;;4947870;28;20431;-73